Time;durP1;ratioP1;P1;durP2;ratioP2;P2;SDS_P1;SDS_P2;PMS_P1;PMS_P2;Temp;Humidity;BMP_temperature;BMP_pressure;BME280_temperature;BME280_humidity;BME280_pressure;Samples;Min_cycle;Max_cycle;Signal;HPM_P1;HPM_P2
2021/10/30 00:00:41;;;;;;;9.23;8.20;;;12.60;58.40;;;;;;5050593;28;20272;-49
2021/10/30 00:03:06;;;;;;;10.37;8.93;;;12.70;58.00;;;;;;5050211;28;20678;-49
2021/10/30 00:05:32;;;;;;;14.67;9.07;;;12.70;57.80;;;;;;5041671;28;20198;-49
2021/10/30 00:07:58;;;;;;;11.17;9.10;;;12.70;57.80;;;;;;5047018;28;20229;-50
2021/10/30 00:10:23;;;;;;;10.80;9.70;;;12.80;57.30;;;;;;5044716;28;20287;-49
2021/10/30 00:12:49;;;;;;;14.63;9.50;;;12.40;57.40;;;;;;5042752;28;20673;-48
2021/10/30 00:15:15;;;;;;;12.83;9.43;;;12.20;58.30;;;;;;5056953;28;20204;-48
2021/10/30 00:17:40;;;;;;;9.60;8.43;;;12.10;58.90;;;;;;5046223;28;20276;-49
2021/10/30 00:20:07;;;;;;;10.60;8.70;;;11.90;59.20;;;;;;5038760;28;20359;-50
2021/10/30 00:22:33;;;;;;;8.70;7.80;;;12.10;59.30;;;;;;5058603;28;20629;-49
2021/10/30 00:24:58;;;;;;;9.10;8.07;;;12.20;58.50;;;;;;5050877;28;20526;-49
2021/10/30 00:27:24;;;;;;;14.00;9.57;;;12.30;58.50;;;;;;5040272;28;20229;-49
2021/10/30 00:29:50;;;;;;;13.23;9.33;;;12.30;58.70;;;;;;5034793;28;20228;-50
2021/10/30 00:32:15;;;;;;;12.77;9.00;;;12.30;58.10;;;;;;5049158;28;20201;-49
2021/10/30 00:34:41;;;;;;;12.70;8.20;;;12.30;58.20;;;;;;5043386;28;20197;-48
2021/10/30 00:37:06;;;;;;;13.10;11.30;;;12.20;58.70;;;;;;5053996;28;20994;-51
2021/10/30 00:39:32;;;;;;;10.73;9.63;;;12.10;58.90;;;;;;5046304;28;20204;-49
2021/10/30 00:41:58;;;;;;;14.37;8.30;;;12.00;59.20;;;;;;5049972;28;20231;-47
2021/10/30 00:44:24;;;;;;;9.67;8.40;;;12.00;59.50;;;;;;5045972;28;20841;-48
2021/10/30 00:46:51;;;;;;;10.17;9.10;;;11.90;59.00;;;;;;5054756;28;20496;-47
2021/10/30 00:49:19;;;;;;;9.80;8.63;;;11.80;59.10;;;;;;5043201;28;20197;-48
2021/10/30 00:51:48;;;;;;;10.33;9.23;;;11.70;59.50;;;;;;5044158;28;20434;-48
2021/10/30 00:54:14;;;;;;;10.53;7.93;;;11.50;59.80;;;;;;5042087;28;20475;-49
2021/10/30 00:56:42;;;;;;;8.93;8.03;;;11.50;60.00;;;;;;5048919;28;20952;-48
2021/10/30 00:59:12;;;;;;;10.07;8.80;;;11.50;60.10;;;;;;5049519;28;20436;-48
2021/10/30 01:01:40;;;;;;;9.80;8.60;;;11.50;60.20;;;;;;5049356;28;20961;-47
2021/10/30 01:04:06;;;;;;;10.67;9.67;;;11.40;59.60;;;;;;5046741;28;20435;-47
2021/10/30 01:06:33;;;;;;;9.77;8.77;;;11.40;59.80;;;;;;5046571;28;20500;-48
2021/10/30 01:08:59;;;;;;;12.10;8.97;;;11.40;59.70;;;;;;5049241;28;20938;-51
2021/10/30 01:11:25;;;;;;;8.47;7.53;;;11.20;60.00;;;;;;5042687;28;20482;-48
2021/10/30 01:13:54;;;;;;;10.13;9.13;;;11.20;60.60;;;;;;5043413;28;20458;-52
2021/10/30 01:16:20;;;;;;;9.80;8.40;;;11.10;61.10;;;;;;5059093;28;20274;-48
2021/10/30 01:18:47;;;;;;;10.27;9.20;;;11.20;60.70;;;;;;5058146;28;21027;-50
2021/10/30 01:21:14;;;;;;;10.43;9.30;;;11.30;59.80;;;;;;5053152;28;20527;-52
2021/10/30 01:23:39;;;;;;;12.13;8.67;;;11.20;59.70;;;;;;5049581;28;20771;-53
2021/10/30 01:26:05;;;;;;;10.67;8.53;;;11.20;60.10;;;;;;5056486;28;20452;-52
2021/10/30 01:28:35;;;;;;;9.10;8.20;;;11.10;60.40;;;;;;5046684;28;20243;-51
2021/10/30 01:31:01;;;;;;;9.50;8.50;;;10.90;61.00;;;;;;5048943;28;20189;-52
2021/10/30 01:33:27;;;;;;;12.23;9.30;;;10.80;61.70;;;;;;5044896;28;20440;-51
2021/10/30 01:35:52;;;;;;;10.00;8.67;;;10.70;62.10;;;;;;5039558;28;20462;-52
2021/10/30 01:38:18;;;;;;;12.47;9.33;;;10.60;62.20;;;;;;5043667;28;20474;-53
2021/10/30 01:40:49;;;;;;;11.77;9.40;;;10.70;61.70;;;;;;5045476;28;20189;-50
2021/10/30 01:43:17;;;;;;;11.13;8.27;;;10.50;62.10;;;;;;5040397;28;20189;-52
2021/10/30 01:45:44;;;;;;;11.10;9.20;;;10.60;63.30;;;;;;5040302;28;20437;-51
2021/10/30 01:48:11;;;;;;;9.77;8.77;;;10.70;61.80;;;;;;5039553;28;20853;-52
2021/10/30 01:50:40;;;;;;;10.67;9.57;;;10.70;61.20;;;;;;5038210;28;20439;-50
2021/10/30 01:53:06;;;;;;;9.50;8.50;;;10.80;61.20;;;;;;5048888;28;20459;-48
2021/10/30 01:55:34;;;;;;;9.83;8.80;;;10.90;61.00;;;;;;5042872;28;21029;-53
2021/10/30 01:58:01;;;;;;;10.50;8.43;;;11.10;60.30;;;;;;5047555;28;20576;-53
2021/10/30 02:00:27;;;;;;;8.80;7.90;;;11.10;60.30;;;;;;5042406;28;20455;-53
2021/10/30 02:02:52;;;;;;;10.10;8.23;;;11.20;59.90;;;;;;5042687;28;20440;-51
2021/10/30 02:05:18;;;;;;;10.27;7.93;;;11.40;59.30;;;;;;5046715;28;20923;-52
2021/10/30 02:07:44;;;;;;;9.27;8.30;;;11.60;58.70;;;;;;5042236;28;20227;-51
2021/10/30 02:10:11;;;;;;;10.93;8.23;;;11.80;58.00;;;;;;5039582;28;20200;-53
2021/10/30 02:12:37;;;;;;;19.37;12.77;;;11.80;57.70;;;;;;5040504;28;20515;-52
2021/10/30 02:15:04;;;;;;;12.20;9.30;;;11.60;57.80;;;;;;5045258;28;20431;-53
2021/10/30 02:17:29;;;;;;;9.43;8.40;;;11.40;57.90;;;;;;5039607;28;20440;-53
2021/10/30 02:19:55;;;;;;;9.33;8.30;;;11.50;58.30;;;;;;5038231;28;20474;-53
2021/10/30 02:22:21;;;;;;;9.13;8.23;;;11.40;58.10;;;;;;5032232;28;20205;-52
2021/10/30 02:24:46;;;;;;;8.30;7.43;;;11.50;58.30;;;;;;5036832;28;20597;-53
2021/10/30 02:27:12;;;;;;;9.87;8.87;;;11.40;58.00;;;;;;5036561;28;20304;-51
2021/10/30 02:29:38;;;;;;;8.20;7.23;;;11.50;58.20;;;;;;5041791;28;20564;-49
2021/10/30 02:32:04;;;;;;;9.60;8.03;;;11.60;57.50;;;;;;5048651;28;20220;-49
2021/10/30 02:34:30;;;;;;;9.03;8.10;;;11.80;57.10;;;;;;5038878;28;20283;-53
2021/10/30 02:36:56;;;;;;;8.10;7.30;;;11.80;57.10;;;;;;5049450;28;20522;-52
2021/10/30 02:39:22;;;;;;;12.80;8.37;;;11.70;56.70;;;;;;5040652;28;20331;-48
2021/10/30 02:41:47;;;;;;;9.30;8.37;;;11.70;57.10;;;;;;5038601;28;20181;-53
2021/10/30 02:44:13;;;;;;;10.07;9.07;;;11.80;56.40;;;;;;5038558;28;20605;-51
2021/10/30 02:46:39;;;;;;;11.07;9.00;;;11.50;56.40;;;;;;5046701;28;20203;-52
2021/10/30 02:49:05;;;;;;;8.60;7.80;;;11.30;57.00;;;;;;5045842;28;20365;-52
2021/10/30 02:51:30;;;;;;;11.30;9.10;;;11.10;57.60;;;;;;5047138;28;20192;-51
2021/10/30 02:53:56;;;;;;;9.77;8.77;;;10.80;57.80;;;;;;5059903;28;20195;-52
2021/10/30 02:56:22;;;;;;;9.50;8.50;;;10.60;58.40;;;;;;5049149;28;20275;-51
2021/10/30 02:58:48;;;;;;;10.53;8.20;;;10.60;58.60;;;;;;5047173;28;20581;-52
2021/10/30 03:01:14;;;;;;;10.10;8.93;;;10.50;59.00;;;;;;5050969;28;20576;-52
2021/10/30 03:03:40;;;;;;;9.83;8.40;;;10.40;59.10;;;;;;5053475;28;20515;-52
2021/10/30 03:06:07;;;;;;;19.17;13.57;;;10.30;59.20;;;;;;5040423;28;20444;-52
2021/10/30 03:08:32;;;;;;;18.97;13.17;;;10.10;59.80;;;;;;5036276;28;20229;-53
2021/10/30 03:10:58;;;;;;;11.67;9.00;;;9.90;61.80;;;;;;5050487;28;20450;-50
2021/10/30 03:13:24;;;;;;;9.90;7.90;;;10.10;60.70;;;;;;5040199;28;20271;-52
2021/10/30 03:15:49;;;;;;;11.03;9.80;;;10.40;60.00;;;;;;5051094;28;20237;-52
2021/10/30 03:18:15;;;;;;;9.70;8.10;;;10.60;59.30;;;;;;5055887;28;20703;-50
2021/10/30 03:20:40;;;;;;;9.57;8.60;;;10.50;58.80;;;;;;5037116;28;20220;-53
2021/10/30 03:23:06;;;;;;;8.57;7.67;;;10.50;58.70;;;;;;5052961;28;20659;-53
2021/10/30 03:25:34;;;;;;;12.73;9.00;;;10.60;58.90;;;;;;5045717;28;20234;-48
2021/10/30 03:27:59;;;;;;;9.87;8.40;;;10.80;58.50;;;;;;5052581;28;20224;-53
2021/10/30 03:30:25;;;;;;;9.83;8.47;;;10.60;58.30;;;;;;5048858;28;20453;-51
2021/10/30 03:32:51;;;;;;;11.30;8.87;;;10.50;58.60;;;;;;5042939;28;20194;-49
2021/10/30 03:35:16;;;;;;;9.53;8.60;;;10.60;58.70;;;;;;5042074;28;20228;-52
2021/10/30 03:37:42;;;;;;;10.83;9.33;;;10.40;58.60;;;;;;5051432;28;20274;-49
2021/10/30 03:40:09;;;;;;;9.43;8.40;;;10.60;58.70;;;;;;5049611;28;20189;-54
2021/10/30 03:42:35;;;;;;;11.13;10.03;;;10.60;58.30;;;;;;5047284;28;20188;-52
2021/10/30 03:45:03;;;;;;;12.47;8.40;;;10.70;58.10;;;;;;5038494;28;20435;-50
2021/10/30 03:47:29;;;;;;;10.17;8.73;;;10.60;57.70;;;;;;5043979;28;20498;-52
2021/10/30 03:49:55;;;;;;;9.50;8.30;;;10.50;57.80;;;;;;5048408;28;20525;-49
2021/10/30 03:52:20;;;;;;;9.50;8.50;;;10.20;58.10;;;;;;5040291;28;20544;-52
2021/10/30 03:54:46;;;;;;;10.00;8.00;;;9.90;59.70;;;;;;5040614;28;20280;-50
2021/10/30 03:57:11;;;;;;;10.00;8.87;;;9.90;59.80;;;;;;5038497;28;20201;-49
2021/10/30 03:59:37;;;;;;;9.93;8.00;;;9.80;59.90;;;;;;5044063;28;20205;-48
2021/10/30 04:02:04;;;;;;;9.90;8.27;;;9.80;60.00;;;;;;5050853;28;20276;-49
2021/10/30 04:04:31;;;;;;;9.67;8.63;;;9.80;60.00;;;;;;5040582;28;20189;-49
2021/10/30 04:06:57;;;;;;;10.57;8.97;;;9.70;60.10;;;;;;5045002;28;20583;-52
2021/10/30 04:09:24;;;;;;;9.80;8.80;;;9.60;60.60;;;;;;5051503;28;20435;-51
2021/10/30 04:11:50;;;;;;;9.20;7.93;;;9.50;60.90;;;;;;5038659;28;20878;-49
2021/10/30 04:14:16;;;;;;;8.83;7.97;;;9.10;61.90;;;;;;5045769;28;20442;-53
2021/10/30 04:16:42;;;;;;;15.30;8.80;;;9.10;62.90;;;;;;5041342;28;20436;-49
2021/10/30 04:19:07;;;;;;;9.43;7.70;;;9.20;63.30;;;;;;5048991;28;20238;-53
2021/10/30 04:21:33;;;;;;;11.17;8.83;;;9.10;62.70;;;;;;5043937;28;20197;-50
2021/10/30 04:23:59;;;;;;;10.27;8.77;;;9.00;63.00;;;;;;5042765;28;20222;-49
2021/10/30 04:26:26;;;;;;;17.33;11.90;;;8.80;63.60;;;;;;5045876;28;20195;-52
2021/10/30 04:28:52;;;;;;;14.90;10.63;;;8.70;64.50;;;;;;5046640;28;20215;-52
2021/10/30 04:31:24;;;;;;;13.07;9.50;;;8.60;65.00;;;;;;5043651;28;20439;-52
2021/10/30 04:33:52;;;;;;;9.47;8.20;;;8.70;65.10;;;;;;5054966;28;20548;-49
2021/10/30 04:36:18;;;;;;;11.00;8.70;;;8.80;64.50;;;;;;5047299;28;20972;-52
2021/10/30 04:38:46;;;;;;;10.63;8.43;;;8.70;64.70;;;;;;5047703;28;20546;-49
2021/10/30 04:41:13;;;;;;;10.27;9.03;;;8.60;64.60;;;;;;5044206;28;20931;-49
2021/10/30 04:43:39;;;;;;;9.37;7.70;;;8.70;64.90;;;;;;5041497;28;20511;-50
2021/10/30 04:46:06;;;;;;;9.57;7.77;;;8.80;64.20;;;;;;5047908;28;20767;-49
2021/10/30 04:48:33;;;;;;;11.63;8.20;;;8.80;64.20;;;;;;5045312;28;20532;-48
2021/10/30 04:50:59;;;;;;;10.33;7.90;;;8.80;63.80;;;;;;5046434;28;20488;-51
2021/10/30 04:53:25;;;;;;;13.50;7.20;;;8.80;63.60;;;;;;5051910;28;20443;-52
2021/10/30 04:55:51;;;;;;;9.40;8.40;;;8.80;63.80;;;;;;5048651;28;20443;-48
2021/10/30 04:58:16;;;;;;;11.97;9.00;;;8.80;64.00;;;;;;5045807;28;21048;-49
2021/10/30 05:00:42;;;;;;;8.10;7.30;;;8.80;63.70;;;;;;5048811;28;20197;-52
2021/10/30 05:03:07;;;;;;;10.07;8.30;;;8.80;63.80;;;;;;5044981;28;20188;-53
2021/10/30 05:05:33;;;;;;;12.00;8.50;;;8.80;63.80;;;;;;5044125;28;20196;-53
2021/10/30 05:07:59;;;;;;;9.37;8.27;;;8.80;63.90;;;;;;5043198;28;20221;-53
2021/10/30 05:10:24;;;;;;;8.73;7.80;;;8.80;63.50;;;;;;5044515;28;20205;-54
2021/10/30 05:12:50;;;;;;;8.67;7.30;;;8.80;64.10;;;;;;5041771;28;20286;-52
2021/10/30 05:15:15;;;;;;;10.03;7.87;;;8.80;63.50;;;;;;5036813;28;20201;-53
2021/10/30 05:17:41;;;;;;;11.00;8.17;;;9.10;63.30;;;;;;5033680;28;20196;-50
2021/10/30 05:20:08;;;;;;;8.50;7.60;;;9.30;62.50;;;;;;5048525;28;20258;-53
2021/10/30 05:22:33;;;;;;;13.00;8.17;;;9.20;62.00;;;;;;5046828;28;20793;-53
2021/10/30 05:24:59;;;;;;;12.57;10.00;;;9.20;61.50;;;;;;5047365;28;20439;-52
2021/10/30 05:27:25;;;;;;;10.03;8.43;;;9.10;61.50;;;;;;5049040;28;20255;-52
2021/10/30 05:29:51;;;;;;;11.30;8.53;;;9.10;62.20;;;;;;5037449;28;20200;-52
2021/10/30 05:32:17;;;;;;;10.10;7.60;;;9.10;61.90;;;;;;5044197;28;20259;-53
2021/10/30 05:34:42;;;;;;;11.13;7.33;;;9.20;62.10;;;;;;5037107;28;20448;-53
2021/10/30 05:37:08;;;;;;;11.80;7.50;;;9.30;61.70;;;;;;5052278;28;20200;-49
2021/10/30 05:39:36;;;;;;;10.80;8.07;;;9.30;61.20;;;;;;5050346;28;20648;-49
2021/10/30 05:42:03;;;;;;;8.37;6.60;;;9.50;61.20;;;;;;5046466;28;20196;-50
2021/10/30 05:44:29;;;;;;;8.80;7.70;;;9.70;60.30;;;;;;5047192;28;20448;-49
2021/10/30 05:46:54;;;;;;;9.60;8.30;;;9.80;59.80;;;;;;5051839;28;20530;-51
2021/10/30 05:49:20;;;;;;;12.57;8.57;;;9.90;59.50;;;;;;5053125;28;20820;-51
2021/10/30 05:51:47;;;;;;;14.77;9.80;;;10.00;58.30;;;;;;5053134;28;20201;-49
2021/10/30 05:54:13;;;;;;;16.70;11.60;;;9.90;58.60;;;;;;5063299;28;20602;-48
2021/10/30 05:56:38;;;;;;;15.63;10.63;;;9.80;58.90;;;;;;5040419;28;20446;-48
2021/10/30 05:59:04;;;;;;;13.67;9.47;;;9.80;59.20;;;;;;5040241;28;20750;-50
2021/10/30 06:01:30;;;;;;;8.93;7.60;;;9.90;58.90;;;;;;5040728;28;20192;-52
2021/10/30 06:03:55;;;;;;;10.40;8.50;;;9.80;58.40;;;;;;5044476;28;20189;-54
2021/10/30 06:06:21;;;;;;;14.13;7.80;;;9.70;59.10;;;;;;5055027;28;20325;-51
2021/10/30 06:08:47;;;;;;;8.67;7.87;;;9.70;59.70;;;;;;5061095;28;20227;-50
2021/10/30 06:11:12;;;;;;;9.73;7.30;;;9.60;60.90;;;;;;5050284;28;20330;-51
2021/10/30 06:13:38;;;;;;;10.90;7.67;;;9.90;61.40;;;;;;5047568;28;20251;-49
2021/10/30 06:16:04;;;;;;;9.10;7.37;;;10.20;60.40;;;;;;5057956;28;20199;-49
2021/10/30 06:18:29;;;;;;;7.67;6.87;;;10.50;59.50;;;;;;5046281;28;20191;-51
2021/10/30 06:20:55;;;;;;;8.23;7.03;;;10.80;58.60;;;;;;5041071;28;20200;-54
2021/10/30 06:23:21;;;;;;;8.73;7.23;;;11.00;58.60;;;;;;5041139;28;20266;-49
2021/10/30 06:25:46;;;;;;;8.63;7.13;;;11.20;57.40;;;;;;5052558;28;20208;-49
2021/10/30 06:28:13;;;;;;;8.77;7.40;;;11.30;56.60;;;;;;5048985;28;20236;-52
2021/10/30 06:30:39;;;;;;;8.40;7.17;;;11.40;55.90;;;;;;5044717;28;20188;-50
2021/10/30 06:33:04;;;;;;;9.30;7.67;;;11.50;56.00;;;;;;5046845;28;20522;-50
2021/10/30 06:35:30;;;;;;;7.30;6.60;;;11.60;54.80;;;;;;5041535;28;21088;-52
2021/10/30 06:37:57;;;;;;;8.03;7.20;;;11.90;54.20;;;;;;5045775;28;20319;-52
2021/10/30 06:40:23;;;;;;;9.70;6.03;;;12.00;53.80;;;;;;5041831;28;20656;-49
2021/10/30 06:42:49;;;;;;;7.43;6.40;;;12.00;53.60;;;;;;5043268;28;20445;-51
2021/10/30 06:45:14;;;;;;;12.43;8.50;;;11.90;53.30;;;;;;5050936;28;20556;-52
2021/10/30 06:47:40;;;;;;;10.10;7.10;;;11.80;53.80;;;;;;5041731;28;20227;-53
2021/10/30 06:50:08;;;;;;;7.47;6.43;;;11.30;54.70;;;;;;5050431;28;20239;-49
2021/10/30 06:52:37;;;;;;;9.60;6.37;;;11.30;55.20;;;;;;5049160;28;20543;-53
2021/10/30 06:55:08;;;;;;;7.63;6.80;;;11.50;55.50;;;;;;5047832;28;20440;-52
2021/10/30 06:57:34;;;;;;;8.10;7.30;;;11.90;55.20;;;;;;5046395;28;20502;-48
2021/10/30 07:00:00;;;;;;;8.77;7.70;;;12.00;54.40;;;;;;5053714;28;20827;-50
2021/10/30 07:02:27;;;;;;;8.73;7.30;;;12.10;53.80;;;;;;5046942;28;20215;-48
2021/10/30 07:04:53;;;;;;;7.10;6.37;;;12.30;53.50;;;;;;5043010;28;20440;-50
2021/10/30 07:07:19;;;;;;;8.40;7.13;;;12.60;53.60;;;;;;5048529;28;20966;-53
2021/10/30 07:09:44;;;;;;;7.90;7.03;;;12.90;52.90;;;;;;5047187;28;20331;-49
2021/10/30 07:12:10;;;;;;;8.70;7.30;;;13.30;52.80;;;;;;5051950;28;20207;-49
2021/10/30 07:14:36;;;;;;;8.70;7.63;;;13.60;51.70;;;;;;5046874;28;20196;-50
2021/10/30 07:17:02;;;;;;;7.70;6.80;;;13.80;50.80;;;;;;5045276;28;20868;-51
2021/10/30 07:19:27;;;;;;;7.87;7.07;;;14.00;50.40;;;;;;5054617;28;20599;-50
2021/10/30 07:21:53;;;;;;;8.23;7.20;;;14.30;50.10;;;;;;5051597;28;20222;-51
2021/10/30 07:24:19;;;;;;;8.97;7.30;;;14.60;49.60;;;;;;5037000;28;20192;-51
2021/10/30 07:26:45;;;;;;;7.50;6.80;;;14.90;49.40;;;;;;5053833;28;20203;-52
2021/10/30 07:29:11;;;;;;;9.53;7.47;;;15.10;48.90;;;;;;5039795;28;20192;-52
2021/10/30 07:31:36;;;;;;;7.10;6.10;;;15.30;48.50;;;;;;5046061;28;20460;-50
2021/10/30 07:34:02;;;;;;;7.93;7.20;;;15.30;48.20;;;;;;5054896;28;20239;-53
2021/10/30 07:36:27;;;;;;;7.03;6.40;;;15.40;48.50;;;;;;5047879;28;20625;-53
2021/10/30 07:38:53;;;;;;;8.30;7.37;;;15.40;48.50;;;;;;5053562;28;20191;-52
2021/10/30 07:41:19;;;;;;;9.03;6.40;;;15.50;48.60;;;;;;5044596;28;20215;-52
2021/10/30 07:43:45;;;;;;;7.90;6.63;;;15.40;48.30;;;;;;5042445;28;20189;-52
2021/10/30 07:46:10;;;;;;;8.70;6.87;;;15.30;48.40;;;;;;5047262;28;20567;-51
2021/10/30 07:48:38;;;;;;;8.03;7.23;;;15.30;48.60;;;;;;5049380;28;20499;-51
2021/10/30 07:51:03;;;;;;;7.77;7.00;;;15.30;48.60;;;;;;5043945;28;20193;-50
2021/10/30 07:53:29;;;;;;;8.17;7.40;;;15.10;48.90;;;;;;5046830;28;20517;-47
2021/10/30 07:55:55;;;;;;;7.27;6.57;;;15.00;49.00;;;;;;5046880;28;20195;-49
2021/10/30 07:58:20;;;;;;;13.20;7.07;;;15.00;49.00;;;;;;5048145;28;20243;-48
2021/10/30 08:00:47;;;;;;;8.60;7.73;;;14.90;49.30;;;;;;5048854;28;20228;-47
2021/10/30 08:03:13;;;;;;;10.40;7.90;;;14.90;49.50;;;;;;5048709;28;20189;-49
2021/10/30 08:05:39;;;;;;;10.90;7.50;;;14.90;49.50;;;;;;5039318;28;21017;-49
2021/10/30 08:08:04;;;;;;;9.40;8.37;;;14.90;49.70;;;;;;5039289;28;20303;-48
2021/10/30 08:10:31;;;;;;;9.93;7.50;;;14.90;49.90;;;;;;5051628;28;20894;-51
2021/10/30 08:12:58;;;;;;;10.83;7.40;;;14.90;49.60;;;;;;5049917;28;20241;-52
2021/10/30 08:15:24;;;;;;;10.20;7.17;;;14.60;49.60;;;;;;5048422;28;20445;-51
2021/10/30 08:17:52;;;;;;;8.80;7.90;;;14.60;50.00;;;;;;5041024;28;20439;-52
2021/10/30 08:20:18;;;;;;;9.20;7.93;;;14.70;49.70;;;;;;5053942;28;20243;-49
2021/10/30 08:22:44;;;;;;;11.03;9.10;;;14.70;49.60;;;;;;5049844;28;20499;-49
2021/10/30 08:25:10;;;;;;;9.37;8.37;;;14.70;49.70;;;;;;5039859;28;20215;-49
2021/10/30 08:27:36;;;;;;;9.07;8.13;;;14.70;49.30;;;;;;5052247;28;20495;-51
2021/10/30 08:30:04;;;;;;;10.03;7.70;;;14.70;49.50;;;;;;5042095;28;20211;-52
2021/10/30 08:32:29;;;;;;;10.83;8.37;;;14.80;49.60;;;;;;5044841;28;20229;-52
2021/10/30 08:34:55;;;;;;;9.43;8.20;;;14.80;49.80;;;;;;5044769;28;20851;-50
2021/10/30 08:37:21;;;;;;;9.33;8.43;;;14.80;50.00;;;;;;5040231;28;20237;-52
2021/10/30 08:39:47;;;;;;;9.77;8.87;;;14.90;50.20;;;;;;5041744;28;20274;-51
2021/10/30 08:42:13;;;;;;;8.07;7.27;;;15.00;50.00;;;;;;5044452;28;20251;-51
2021/10/30 08:44:41;;;;;;;9.73;8.70;;;15.10;49.90;;;;;;5049648;28;20521;-51
2021/10/30 08:47:07;;;;;;;12.00;8.83;;;15.10;49.90;;;;;;5041935;28;20228;-50
2021/10/30 08:49:37;;;;;;;10.13;9.00;;;15.20;49.60;;;;;;5039461;28;20435;-52
2021/10/30 08:52:04;;;;;;;10.70;9.60;;;15.30;49.70;;;;;;5047866;28;20262;-52
2021/10/30 08:54:30;;;;;;;9.97;8.97;;;15.30;49.50;;;;;;5043706;28;20427;-52
2021/10/30 08:56:56;;;;;;;9.10;8.17;;;15.30;49.60;;;;;;5046838;28;20446;-52
2021/10/30 08:59:41;;;;;;;12.47;9.33;;;15.30;49.50;;;;;;5042534;28;20193;-51
2021/10/30 09:02:14;;;;;;;12.87;8.90;;;15.40;49.50;;;;;;5049903;28;20196;-48
2021/10/30 09:04:40;;;;;;;8.93;8.07;;;15.50;49.70;;;;;;5043736;28;20423;-50
2021/10/30 09:07:08;;;;;;;12.33;9.40;;;15.50;49.80;;;;;;5048308;28;21031;-52
2021/10/30 09:09:36;;;;;;;10.20;8.80;;;15.60;49.80;;;;;;5044756;28;20197;-49
2021/10/30 09:12:03;;;;;;;9.57;8.33;;;15.70;50.00;;;;;;5045025;28;20444;-49
2021/10/30 09:14:43;;;;;;;10.83;8.90;;;15.80;50.20;;;;;;5050213;28;20529;-52
2021/10/30 09:17:18;;;;;;;10.07;8.80;;;15.90;50.80;;;;;;5043909;28;20489;-50
2021/10/30 09:19:49;;;;;;;11.13;9.67;;;15.90;50.90;;;;;;5037609;28;20485;-50
2021/10/30 09:22:19;;;;;;;10.83;9.83;;;15.90;51.00;;;;;;5044436;28;20469;-48
2021/10/30 09:25:04;;;;;;;9.73;8.70;;;15.90;50.80;;;;;;5040317;28;20458;-50
2021/10/30 09:27:44;;;;;;;9.83;8.83;;;16.00;50.70;;;;;;5041133;28;20537;-49
2021/10/30 09:30:10;;;;;;;10.20;9.30;;;16.00;51.10;;;;;;5035791;28;20448;-52
2021/10/30 09:32:36;;;;;;;9.20;8.07;;;16.00;51.10;;;;;;5042769;28;20450;-52
2021/10/30 09:35:04;;;;;;;10.30;8.70;;;16.10;51.10;;;;;;5046353;28;20299;-50
2021/10/30 09:37:34;;;;;;;11.10;9.57;;;16.10;51.20;;;;;;5034999;28;20204;-48
2021/10/30 09:40:35;;;;;;;10.53;9.10;;;16.10;51.10;;;;;;5044489;28;20812;-51
2021/10/30 09:43:18;;;;;;;13.53;10.77;;;16.00;51.40;;;;;;5005154;28;20462;-51
2021/10/30 09:45:53;;;;;;;12.23;10.83;;;15.80;51.70;;;;;;5045292;28;20937;-50
2021/10/30 09:48:22;;;;;;;11.20;9.83;;;15.70;51.90;;;;;;5045699;28;20989;-51
2021/10/30 09:50:55;;;;;;;11.97;10.67;;;15.70;51.90;;;;;;5042204;28;20931;-50
2021/10/30 09:53:25;;;;;;;12.33;11.03;;;15.60;52.20;;;;;;5043828;28;21237;-51
2021/10/30 09:56:05;;;;;;;12.23;11.03;;;15.50;52.30;;;;;;5037631;28;20446;-52
2021/10/30 09:58:42;;;;;;;11.60;9.93;;;15.60;52.40;;;;;;5039314;28;20866;-53
2021/10/30 10:01:15;;;;;;;10.30;9.20;;;15.50;52.50;;;;;;5042504;28;20481;-48
2021/10/30 10:03:46;;;;;;;11.87;9.77;;;15.60;52.60;;;;;;5041507;28;20802;-50
2021/10/30 10:06:15;;;;;;;10.23;9.23;;;15.50;52.60;;;;;;5032400;28;20483;-48
2021/10/30 10:08:45;;;;;;;10.70;8.93;;;15.50;52.40;;;;;;5036002;28;20849;-48
2021/10/30 10:11:16;;;;;;;12.73;8.83;;;15.60;52.60;;;;;;5045313;28;20444;-47
2021/10/30 10:13:44;;;;;;;11.43;10.23;;;15.50;52.70;;;;;;5045411;28;20469;-46
2021/10/30 10:16:14;;;;;;;10.10;8.90;;;15.50;53.10;;;;;;5036748;28;20555;-50
2021/10/30 10:18:41;;;;;;;11.83;9.00;;;15.40;53.40;;;;;;5041263;28;20801;-50
2021/10/30 10:21:11;;;;;;;9.90;8.90;;;15.30;52.90;;;;;;5041238;28;20442;-49
2021/10/30 10:23:40;;;;;;;11.27;9.70;;;15.30;53.00;;;;;;5048990;28;20439;-48
2021/10/30 10:26:06;;;;;;;11.40;9.60;;;15.20;53.20;;;;;;5049507;28;20438;-48
2021/10/30 10:28:34;;;;;;;12.93;10.13;;;15.20;53.20;;;;;;5046233;28;21001;-48
2021/10/30 10:31:04;;;;;;;11.33;9.93;;;15.20;52.90;;;;;;5042829;28;20286;-48
2021/10/30 10:33:31;;;;;;;13.63;11.20;;;15.30;52.90;;;;;;5048082;28;21093;-47
2021/10/30 10:36:37;;;;;;;13.43;10.10;;;15.40;53.10;;;;;;5041643;28;20438;-47
2021/10/30 10:39:03;;;;;;;10.67;9.57;;;15.40;53.10;;;;;;4992159;28;20827;-51
2021/10/30 10:41:40;;;;;;;15.90;9.80;;;15.30;53.10;;;;;;4999717;28;20448;-47
2021/10/30 10:44:11;;;;;;;11.80;10.20;;;15.30;53.40;;;;;;5027228;28;20647;-47
2021/10/30 10:46:42;;;;;;;11.23;9.87;;;15.40;53.20;;;;;;5049737;28;20439;-49
2021/10/30 10:49:18;;;;;;;11.07;9.57;;;15.60;53.20;;;;;;5039816;28;20432;-47
2021/10/30 10:52:18;;;;;;;10.10;9.10;;;15.70;53.10;;;;;;5039713;28;20467;-50
2021/10/30 10:55:07;;;;;;;10.87;9.10;;;15.80;52.90;;;;;;5045593;28;20446;-47
2021/10/30 10:57:39;;;;;;;10.73;9.27;;;15.90;52.80;;;;;;5027709;28;20459;-51
2021/10/30 11:00:17;;;;;;;10.83;9.73;;;16.00;52.50;;;;;;5044250;28;20432;-52
2021/10/30 11:02:49;;;;;;;20.53;14.60;;;16.00;52.20;;;;;;5041586;28;20447;-51
2021/10/30 11:05:23;;;;;;;23.50;20.90;;;16.10;52.30;;;;;;5043925;28;20439;-50
2021/10/30 11:07:52;;;;;;;30.30;23.67;;;16.10;52.40;;;;;;5041288;28;20474;-46
2021/10/30 11:10:27;;;;;;;24.53;18.37;;;16.20;52.40;;;;;;5041248;28;20439;-51
2021/10/30 11:12:59;;;;;;;17.40;14.37;;;16.20;52.00;;;;;;5055158;28;21001;-49
2021/10/30 11:15:28;;;;;;;13.50;12.10;;;16.20;52.10;;;;;;5051876;28;20445;-48
2021/10/30 11:18:00;;;;;;;13.67;11.50;;;16.20;52.10;;;;;;5060466;28;20423;-47
2021/10/30 11:20:35;;;;;;;12.20;9.90;;;16.20;52.10;;;;;;5043797;28;20474;-46
2021/10/30 11:23:02;;;;;;;14.73;10.90;;;16.20;52.20;;;;;;5046753;28;20859;-48
2021/10/30 11:25:32;;;;;;;15.30;10.47;;;16.10;51.80;;;;;;5051395;28;20427;-47
2021/10/30 11:27:59;;;;;;;12.53;10.73;;;16.10;51.80;;;;;;5037881;28;20468;-46
2021/10/30 11:30:43;;;;;;;11.70;10.50;;;16.10;51.60;;;;;;5052580;28;20419;-50
2021/10/30 11:33:23;;;;;;;12.70;11.40;;;15.90;52.10;;;;;;5042735;28;20443;-49
2021/10/30 11:36:05;;;;;;;18.73;14.93;;;15.70;52.80;;;;;;5052352;28;20548;-48
2021/10/30 11:38:52;;;;;;;22.13;17.33;;;15.80;52.80;;;;;;5046118;28;20489;-50
2021/10/30 11:41:40;;;;;;;26.97;19.10;;;15.80;52.60;;;;;;5042015;28;20447;-52
2021/10/30 11:44:14;;;;;;;24.90;18.83;;;15.80;52.60;;;;;;5045771;28;20527;-50
2021/10/30 11:46:49;;;;;;;21.60;17.27;;;15.90;52.30;;;;;;5048080;28;20930;-51
2021/10/30 11:49:21;;;;;;;22.57;16.97;;;15.90;52.10;;;;;;5048194;28;20522;-51
2021/10/30 11:51:47;;;;;;;19.23;15.43;;;15.90;52.10;;;;;;5049387;28;20574;-51
2021/10/30 11:54:14;;;;;;;19.70;13.90;;;15.90;52.10;;;;;;5044423;28;20512;-52
2021/10/30 11:56:41;;;;;;;16.13;13.60;;;15.90;52.10;;;;;;5051696;28;20632;-51
2021/10/30 11:59:08;;;;;;;13.77;11.87;;;15.90;52.00;;;;;;5048362;28;20555;-50
2021/10/30 12:01:39;;;;;;;15.00;12.67;;;15.90;52.30;;;;;;5052182;28;20467;-50
2021/10/30 12:04:21;;;;;;;14.83;12.63;;;15.90;52.40;;;;;;5052760;28;20430;-48
2021/10/30 12:06:54;;;;;;;15.77;12.50;;;16.00;51.80;;;;;;5038494;28;20436;-50
2021/10/30 12:09:28;;;;;;;13.50;11.53;;;15.90;51.80;;;;;;5042464;28;20451;-51
2021/10/30 12:11:56;;;;;;;11.43;10.33;;;15.90;52.10;;;;;;5048529;28;20835;-52
2021/10/30 12:14:26;;;;;;;14.23;12.73;;;16.00;52.30;;;;;;5037233;28;20472;-50
2021/10/30 12:16:54;;;;;;;14.50;12.70;;;15.80;53.30;;;;;;5039840;28;20435;-51
2021/10/30 12:19:23;;;;;;;20.93;16.23;;;15.50;55.20;;;;;;5046206;28;20997;-51
2021/10/30 12:21:49;;;;;;;21.33;17.47;;;15.30;56.10;;;;;;5049710;28;20435;-50
2021/10/30 12:24:28;;;;;;;21.80;17.30;;;15.20;57.70;;;;;;5073668;28;20431;-51
2021/10/30 12:27:03;;;;;;;19.73;16.63;;;15.00;58.30;;;;;;5057347;28;20498;-52
2021/10/30 12:29:30;;;;;;;21.63;16.50;;;15.10;58.30;;;;;;5050608;28;20473;-49
2021/10/30 12:32:04;;;;;;;18.07;16.17;;;15.20;58.10;;;;;;5055515;28;20776;-51
2021/10/30 12:34:38;;;;;;;19.03;15.63;;;15.30;58.50;;;;;;5049033;28;20440;-51
2021/10/30 12:37:06;;;;;;;19.53;15.40;;;15.20;58.70;;;;;;5048769;28;20443;-49
2021/10/30 12:39:33;;;;;;;20.17;16.27;;;15.20;58.70;;;;;;5040587;28;20530;-50
2021/10/30 12:42:01;;;;;;;19.67;16.83;;;15.10;58.90;;;;;;5048066;28;20800;-53
2021/10/30 12:44:33;;;;;;;24.63;18.30;;;15.00;58.60;;;;;;5043099;28;20551;-52